createdAt,value
2023-07-29T00:00:17.167Z,99326.77
2023-07-29T00:02:44.730Z,99326.90
2023-07-29T00:05:11.343Z,99326.63
2023-07-29T00:07:37.962Z,99326.36
2023-07-29T00:10:05.194Z,99324.30
2023-07-29T00:12:31.693Z,99322.63
2023-07-29T00:14:58.278Z,99322.70
2023-07-29T00:17:24.798Z,99319.81
2023-07-29T00:19:51.396Z,99320.94
2023-07-29T00:22:17.921Z,99321.10
2023-07-29T00:24:44.692Z,99320.20
2023-07-29T00:28:38.245Z,99320.59
2023-07-29T00:31:05.330Z,99318.38
2023-07-29T00:33:33.808Z,99317.73
2023-07-29T00:36:02.417Z,99318.01
2023-07-29T00:38:29.377Z,99317.73
2023-07-29T00:40:57.676Z,99318.45
2023-07-29T00:43:24.168Z,99322.23
2023-07-29T00:45:50.815Z,99322.88
2023-07-29T00:48:17.438Z,99323.37
2023-07-29T00:50:44.013Z,99323.88
2023-07-29T00:53:10.555Z,99324.90
2023-07-29T00:55:37.618Z,99325.83
2023-07-29T00:58:04.746Z,99325.73
2023-07-29T01:00:33.226Z,99318.51
2023-07-29T01:02:59.860Z,99315.37
2023-07-29T01:05:30.235Z,99315.82
2023-07-29T01:08:05.729Z,99317.33
2023-07-29T01:11:01.981Z,99315.43
2023-07-29T01:13:56.312Z,99314.39
2023-07-29T01:16:39.830Z,99317.75
2023-07-29T01:19:09.626Z,99313.14
2023-07-29T01:21:36.655Z,99314.77
2023-07-29T01:24:04.972Z,99314.55
2023-07-29T01:26:31.547Z,99317.80
2023-07-29T01:28:58.985Z,99316.00
2023-07-29T01:31:34.213Z,99322.41
2023-07-29T01:34:41.214Z,99317.38
2023-07-29T01:37:08.437Z,99324.48
2023-07-29T01:39:34.998Z,99326.92
2023-07-29T01:42:02.448Z,99324.48
2023-07-29T01:44:29.089Z,99322.58
2023-07-29T01:46:56.863Z,99319.54
2023-07-29T01:49:23.330Z,99321.45
2023-07-29T01:51:49.862Z,99325.41
2023-07-29T01:54:16.443Z,99324.98
2023-07-29T01:56:43.076Z,99325.34
2023-07-29T01:59:09.537Z,99325.14
2023-07-29T02:01:36.379Z,99326.39
2023-07-29T02:04:02.884Z,99327.97
2023-07-29T02:06:29.968Z,99326.45
2023-07-29T02:08:56.792Z,99324.27
2023-07-29T02:11:27.864Z,99324.27
2023-07-29T02:13:55.155Z,99324.87
2023-07-29T02:16:23.179Z,99326.83
2023-07-29T02:18:50.240Z,99326.43
2023-07-29T02:21:17.194Z,99328.87
2023-07-29T02:23:43.874Z,99329.15
2023-07-29T02:26:11.247Z,99328.61
2023-07-29T02:28:37.912Z,99331.65
2023-07-29T02:31:20.186Z,99327.25
2023-07-29T02:33:46.708Z,99325.08
2023-07-29T02:36:13.974Z,99322.25
2023-07-29T02:38:41.222Z,99323.71
2023-07-29T02:41:12.691Z,99324.05
2023-07-29T02:43:41.529Z,99323.08
2023-07-29T02:46:08.328Z,99324.77
2023-07-29T02:48:36.191Z,99327.65
2023-07-29T02:51:02.726Z,99329.64
2023-07-29T02:53:29.328Z,99332.70
2023-07-29T02:55:55.900Z,99334.21
2023-07-29T02:58:22.640Z,99332.04
2023-07-29T03:00:49.465Z,99328.46
2023-07-29T03:03:16.371Z,99332.63
2023-07-29T03:05:43.746Z,99334.53
2023-07-29T03:08:10.628Z,99335.58
2023-07-29T03:10:37.417Z,99337.46
2023-07-29T03:13:04.029Z,99336.47
2023-07-29T03:15:33.207Z,99336.57
2023-07-29T03:17:59.632Z,99345.31
2023-07-29T03:20:26.416Z,99347.44
2023-07-29T03:22:52.910Z,99351.17
2023-07-29T03:25:19.674Z,99351.63
2023-07-29T03:27:49.883Z,99352.98
2023-07-29T03:30:19.367Z,99357.70
2023-07-29T03:32:46.133Z,99356.48
2023-07-29T03:35:12.840Z,99353.05
2023-07-29T03:37:39.611Z,99352.02
2023-07-29T03:40:07.134Z,99353.33
2023-07-29T03:42:33.890Z,99356.45
2023-07-29T03:45:00.469Z,99356.17
2023-07-29T03:47:28.082Z,99359.53
2023-07-29T03:49:55.022Z,99363.00
2023-07-29T03:52:22.131Z,99362.02
2023-07-29T03:54:48.600Z,99361.65
2023-07-29T03:57:15.707Z,99359.86
2023-07-29T03:59:42.496Z,99358.02
2023-07-29T04:02:09.091Z,99357.52
2023-07-29T04:04:35.904Z,99353.79
2023-07-29T04:07:02.580Z,99354.17
2023-07-29T04:09:29.246Z,99353.52
2023-07-29T04:11:55.811Z,99354.55
2023-07-29T04:14:22.296Z,99360.23
2023-07-29T04:16:50.200Z,99364.58
2023-07-29T04:19:17.364Z,99361.88
2023-07-29T04:21:43.972Z,99362.55
2023-07-29T04:24:10.499Z,99358.48
2023-07-29T04:26:39.958Z,99357.06
2023-07-29T04:29:06.704Z,99358.09
2023-07-29T04:31:35.398Z,99357.23
2023-07-29T04:34:02.947Z,99358.77
2023-07-29T04:36:29.978Z,99357.81
2023-07-29T04:38:56.511Z,99363.46
2023-07-29T04:41:23.191Z,99363.17
2023-07-29T04:43:50.571Z,99364.09
2023-07-29T04:46:17.189Z,99363.75
2023-07-29T04:48:44.951Z,99360.08
2023-07-29T04:51:11.516Z,99361.20
2023-07-29T04:53:41.020Z,99363.30
2023-07-29T04:56:07.539Z,99365.64
2023-07-29T04:58:35.790Z,99363.81
2023-07-29T05:01:03.816Z,99363.23
2023-07-29T05:03:30.999Z,99366.59
2023-07-29T05:05:58.517Z,99368.92
2023-07-29T05:08:26.719Z,99369.34
2023-07-29T05:10:54.334Z,99369.48
2023-07-29T05:13:21.148Z,99362.44
2023-07-29T05:15:48.507Z,99361.46
2023-07-29T05:18:18.383Z,99363.20
2023-07-29T05:20:45.035Z,99362.95
2023-07-29T05:23:14.252Z,99362.91
2023-07-29T05:25:44.690Z,99367.92
2023-07-29T05:28:11.753Z,99356.50
2023-07-29T05:30:40.563Z,99355.05
2023-07-29T05:33:10.366Z,99356.61
2023-07-29T05:35:38.446Z,99358.88
2023-07-29T05:38:09.174Z,99365.80
2023-07-29T05:40:36.442Z,99365.16
2023-07-29T05:43:03.847Z,99361.23
2023-07-29T05:45:31.648Z,99371.10
2023-07-29T05:48:00.144Z,99369.73
2023-07-29T05:50:26.994Z,99372.68
2023-07-29T05:52:57.080Z,99372.68
2023-07-29T05:55:23.717Z,99371.16
2023-07-29T05:57:50.368Z,99370.85
2023-07-29T06:00:16.927Z,99366.98
2023-07-29T06:02:45.276Z,99368.16
2023-07-29T06:05:14.305Z,99371.09
2023-07-29T06:07:44.684Z,99372.59
2023-07-29T06:10:19.447Z,99371.18
2023-07-29T06:12:46.245Z,99370.13
2023-07-29T06:15:12.946Z,99365.39
2023-07-29T06:17:39.737Z,99366.18
2023-07-29T06:20:06.824Z,99368.78
2023-07-29T06:22:33.403Z,99374.70
2023-07-29T06:25:00.248Z,99374.61
2023-07-29T06:27:26.768Z,99368.10
2023-07-29T06:29:53.459Z,99371.23
2023-07-29T06:32:20.235Z,99367.85
2023-07-29T06:34:46.739Z,99365.83
2023-07-29T06:37:13.165Z,99364.01
2023-07-29T06:39:39.658Z,99365.23
2023-07-29T06:42:06.640Z,99367.20
2023-07-29T06:44:33.662Z,99366.75
2023-07-29T06:47:00.388Z,99368.70
2023-07-29T06:49:27.039Z,99370.38
2023-07-29T06:51:53.655Z,99368.08
2023-07-29T06:54:24.871Z,99362.34
2023-07-29T06:56:51.438Z,99360.45
2023-07-29T06:59:17.939Z,99362.20
2023-07-29T07:01:44.626Z,99358.69
2023-07-29T07:04:11.383Z,99363.05
2023-07-29T07:06:38.875Z,99364.03
2023-07-29T07:09:05.473Z,99363.96
2023-07-29T07:11:32.043Z,99363.80
2023-07-29T07:13:58.644Z,99364.33
2023-07-29T07:16:25.199Z,99368.16
2023-07-29T07:18:52.060Z,99370.37
2023-07-29T07:21:18.814Z,99370.77
2023-07-29T07:23:45.458Z,99361.85
2023-07-29T07:26:12.025Z,99365.61
2023-07-29T07:28:38.886Z,99363.80
2023-07-29T07:31:05.631Z,99363.30
2023-07-29T07:33:33.491Z,99357.03
2023-07-29T07:36:00.358Z,99361.96
2023-07-29T07:38:27.005Z,99358.57
2023-07-29T07:40:57.751Z,99363.09
2023-07-29T07:43:25.839Z,99362.88
2023-07-29T07:46:03.744Z,99360.30
2023-07-29T07:48:30.540Z,99356.36
2023-07-29T07:50:59.469Z,99358.58
2023-07-29T07:53:32.402Z,99355.05
2023-07-29T07:56:17.977Z,99358.48
2023-07-29T07:58:45.618Z,99356.19
2023-07-29T08:01:12.899Z,99353.77
2023-07-29T08:03:44.338Z,99354.05
2023-07-29T08:06:11.126Z,99362.15
2023-07-29T08:08:37.749Z,99361.01
2023-07-29T08:11:05.188Z,99360.50
2023-07-29T08:13:33.457Z,99358.66
2023-07-29T08:16:00.068Z,99357.14
2023-07-29T08:18:27.275Z,99359.48
2023-07-29T08:20:58.556Z,99353.98
2023-07-29T08:23:28.711Z,99354.55
2023-07-29T08:26:02.337Z,99349.92
2023-07-29T08:28:32.928Z,99350.77
2023-07-29T08:30:59.596Z,99344.91
2023-07-29T08:33:26.671Z,99345.05
2023-07-29T08:35:53.207Z,99342.39
2023-07-29T08:38:20.865Z,99344.67
2023-07-29T08:40:53.721Z,99345.77
2023-07-29T08:43:21.481Z,99335.52
2023-07-29T08:45:48.033Z,99335.89
2023-07-29T08:48:17.925Z,99331.35
2023-07-29T08:50:44.742Z,99330.77
2023-07-29T08:53:11.395Z,99330.33
2023-07-29T08:55:38.189Z,99336.02
2023-07-29T08:58:04.662Z,99328.88
2023-07-29T09:06:45.419Z,99332.20
2023-07-29T09:09:12.815Z,99327.60
